sensor_id;sensor_type;location;lat;lon;timestamp;pressure;altitude;pressure_sealevel;temperature;humidity
86751;BME280;77512;52.390;4.686;2024-03-29T00:02:15;99072.94;;;17.39;60.56
86751;BME280;77512;52.390;4.686;2024-03-29T00:04:40;99064.16;;;17.40;60.65
86751;BME280;77512;52.390;4.686;2024-03-29T00:07:05;99062.66;;;17.38;60.46
86751;BME280;77512;52.390;4.686;2024-03-29T00:09:32;99066.06;;;17.38;60.52
86751;BME280;77512;52.390;4.686;2024-03-29T00:11:57;99063.59;;;17.37;60.33
86751;BME280;77512;52.390;4.686;2024-03-29T00:14:22;99071.59;;;17.35;60.63
86751;BME280;77512;52.390;4.686;2024-03-29T00:16:48;99070.91;;;17.33;60.63
86751;BME280;77512;52.390;4.686;2024-03-29T00:19:13;99077.28;;;17.31;60.35
86751;BME280;77512;52.390;4.686;2024-03-29T00:21:38;99071.34;;;17.29;60.62
86751;BME280;77512;52.390;4.686;2024-03-29T00:24:03;99081.81;;;17.29;60.38
86751;BME280;77512;52.390;4.686;2024-03-29T00:26:29;99084.84;;;17.24;60.29
86751;BME280;77512;52.390;4.686;2024-03-29T00:28:54;99079.34;;;17.27;60.39
86751;BME280;77512;52.390;4.686;2024-03-29T00:31:20;99091.75;;;17.25;60.33
86751;BME280;77512;52.390;4.686;2024-03-29T00:33:45;99090.06;;;17.24;60.58
86751;BME280;77512;52.390;4.686;2024-03-29T00:36:11;99092.03;;;17.22;60.56
86751;BME280;77512;52.390;4.686;2024-03-29T00:38:36;99086.09;;;17.20;60.53
86751;BME280;77512;52.390;4.686;2024-03-29T00:41:01;99094.94;;;17.19;60.30
86751;BME280;77512;52.390;4.686;2024-03-29T00:43:27;99091.34;;;17.20;60.17
86751;BME280;77512;52.390;4.686;2024-03-29T00:45:52;99094.78;;;17.21;60.06
86751;BME280;77512;52.390;4.686;2024-03-29T00:48:18;99095.06;;;17.18;60.32
86751;BME280;77512;52.390;4.686;2024-03-29T00:50:45;99098.78;;;17.15;60.04
86751;BME280;77512;52.390;4.686;2024-03-29T00:53:10;99096.03;;;17.17;60.12
86751;BME280;77512;52.390;4.686;2024-03-29T00:55:36;99096.84;;;17.17;60.14
86751;BME280;77512;52.390;4.686;2024-03-29T00:58:01;99102.25;;;17.16;59.98
86751;BME280;77512;52.390;4.686;2024-03-29T01:00:27;99107.63;;;17.14;60.04
86751;BME280;77512;52.390;4.686;2024-03-29T01:02:52;99095.47;;;17.13;59.96
86751;BME280;77512;52.390;4.686;2024-03-29T01:05:17;99099.06;;;17.12;60.04
86751;BME280;77512;52.390;4.686;2024-03-29T01:07:43;99095.63;;;17.12;60.12
86751;BME280;77512;52.390;4.686;2024-03-29T01:10:08;99105.94;;;17.13;60.13
86751;BME280;77512;52.390;4.686;2024-03-29T01:12:37;99106.91;;;17.12;59.85
86751;BME280;77512;52.390;4.686;2024-03-29T01:15:04;99107.91;;;17.11;59.97
86751;BME280;77512;52.390;4.686;2024-03-29T01:17:30;99109.81;;;17.09;59.99
86751;BME280;77512;52.390;4.686;2024-03-29T01:19:55;99111.63;;;17.09;59.91
86751;BME280;77512;52.390;4.686;2024-03-29T01:22:21;99101.44;;;17.06;59.96
86751;BME280;77512;52.390;4.686;2024-03-29T01:24:46;99098.56;;;17.09;60.14
86751;BME280;77512;52.390;4.686;2024-03-29T01:27:12;99095.38;;;17.05;60.07
86751;BME280;77512;52.390;4.686;2024-03-29T01:29:37;99104.72;;;17.08;59.64
86751;BME280;77512;52.390;4.686;2024-03-29T01:32:03;99096.75;;;17.09;59.82
86751;BME280;77512;52.390;4.686;2024-03-29T01:34:28;99099.22;;;17.11;59.58
86751;BME280;77512;52.390;4.686;2024-03-29T01:36:53;99100.19;;;17.10;59.58
86751;BME280;77512;52.390;4.686;2024-03-29T01:39:19;99100.19;;;17.10;59.55
86751;BME280;77512;52.390;4.686;2024-03-29T01:41:46;99098.41;;;17.10;59.39
86751;BME280;77512;52.390;4.686;2024-03-29T01:44:11;99104.06;;;17.06;59.71
86751;BME280;77512;52.390;4.686;2024-03-29T01:46:37;99095.38;;;17.05;59.53
86751;BME280;77512;52.390;4.686;2024-03-29T01:49:04;99092.09;;;17.03;59.51
86751;BME280;77512;52.390;4.686;2024-03-29T01:51:30;99088.94;;;17.00;59.79
86751;BME280;77512;52.390;4.686;2024-03-29T01:53:56;99096.63;;;17.01;59.76
86751;BME280;77512;52.390;4.686;2024-03-29T01:56:22;99085.53;;;16.99;59.69
86751;BME280;77512;52.390;4.686;2024-03-29T01:58:49;99090.88;;;16.98;60.03
86751;BME280;77512;52.390;4.686;2024-03-29T02:01:15;99076.97;;;16.97;59.84
86751;BME280;77512;52.390;4.686;2024-03-29T02:03:42;99077.13;;;16.96;59.95
86751;BME280;77512;52.390;4.686;2024-03-29T02:06:08;99075.63;;;16.93;59.95
86751;BME280;77512;52.390;4.686;2024-03-29T02:08:35;99070.94;;;16.87;60.05
86751;BME280;77512;52.390;4.686;2024-03-29T02:11:01;99086.22;;;16.92;59.99
86751;BME280;77512;52.390;4.686;2024-03-29T02:13:29;99081.97;;;16.91;60.08
86751;BME280;77512;52.390;4.686;2024-03-29T02:15:54;99092.41;;;16.91;60.12
86751;BME280;77512;52.390;4.686;2024-03-29T02:18:19;99087.31;;;16.89;59.96
86751;BME280;77512;52.390;4.686;2024-03-29T02:20:45;99091.72;;;16.88;59.94
86751;BME280;77512;52.390;4.686;2024-03-29T02:23:13;99092.69;;;16.88;60.08
86751;BME280;77512;52.390;4.686;2024-03-29T02:25:39;99091.84;;;16.87;60.05
86751;BME280;77512;52.390;4.686;2024-03-29T02:28:05;99089.25;;;16.87;60.02
86751;BME280;77512;52.390;4.686;2024-03-29T02:30:31;99089.38;;;16.85;59.78
86751;BME280;77512;52.390;4.686;2024-03-29T02:32:59;99088.72;;;16.83;60.01
86751;BME280;77512;52.390;4.686;2024-03-29T02:35:25;99092.97;;;16.84;60.04
86751;BME280;77512;52.390;4.686;2024-03-29T02:37:51;99106.03;;;16.84;59.95
86751;BME280;77512;52.390;4.686;2024-03-29T02:40:17;99097.41;;;16.84;59.98
86751;BME280;77512;52.390;4.686;2024-03-29T02:42:43;99108.78;;;16.83;60.10
86751;BME280;77512;52.390;4.686;2024-03-29T02:45:08;99106.19;;;16.83;60.02
86751;BME280;77512;52.390;4.686;2024-03-29T02:47:34;99108.94;;;16.81;60.01
86751;BME280;77512;52.390;4.686;2024-03-29T02:49:59;99108.13;;;16.81;60.07
86751;BME280;77512;52.390;4.686;2024-03-29T02:52:25;99108.25;;;16.79;59.95
86751;BME280;77512;52.390;4.686;2024-03-29T02:54:50;99105.66;;;16.79;60.03
86751;BME280;77512;52.390;4.686;2024-03-29T02:57:15;99110.88;;;16.79;60.07
86751;BME280;77512;52.390;4.686;2024-03-29T02:59:41;99101.41;;;16.78;60.02
86751;BME280;77512;52.390;4.686;2024-03-29T03:02:07;99104.16;;;16.77;59.86
86751;BME280;77512;52.390;4.686;2024-03-29T03:04:32;99109.22;;;16.78;59.92
86751;BME280;77512;52.390;4.686;2024-03-29T03:06:58;99111.16;;;16.76;60.00
86751;BME280;77512;52.390;4.686;2024-03-29T03:09:43;99107.84;;;16.74;60.01
86751;BME280;77512;52.390;4.686;2024-03-29T03:12:29;99097.38;;;16.74;60.05
86751;BME280;77512;52.390;4.686;2024-03-29T03:14:54;99100.97;;;16.73;59.98
86751;BME280;77512;52.390;4.686;2024-03-29T03:17:20;99113.06;;;16.74;59.99
86751;BME280;77512;52.390;4.686;2024-03-29T03:19:45;99104.41;;;16.74;59.79
86751;BME280;77512;52.390;4.686;2024-03-29T03:22:10;99120.22;;;16.72;59.73
86751;BME280;77512;52.390;4.686;2024-03-29T03:24:36;99118.59;;;16.71;59.83
86751;BME280;77512;52.390;4.686;2024-03-29T03:27:01;99119.41;;;16.72;59.95
86751;BME280;77512;52.390;4.686;2024-03-29T03:29:26;99127.94;;;16.74;59.57
86751;BME280;77512;52.390;4.686;2024-03-29T03:31:51;99129.97;;;16.80;59.47
86751;BME280;77512;52.390;4.686;2024-03-29T03:34:17;99135.75;;;16.83;59.29
86751;BME280;77512;52.390;4.686;2024-03-29T03:36:42;99133.97;;;16.84;59.26
86751;BME280;77512;52.390;4.686;2024-03-29T03:39:08;99134.78;;;16.84;59.43
86751;BME280;77512;52.390;4.686;2024-03-29T03:41:33;99139.19;;;16.84;59.57
86751;BME280;77512;52.390;4.686;2024-03-29T03:43:58;99141.94;;;16.83;59.46
86751;BME280;77512;52.390;4.686;2024-03-29T03:46:24;99140.16;;;16.83;59.45
86751;BME280;77512;52.390;4.686;2024-03-29T03:48:49;99136.59;;;16.84;59.86
86751;BME280;77512;52.390;4.686;2024-03-29T03:51:14;99146.34;;;16.82;59.85
86751;BME280;77512;52.390;4.686;2024-03-29T03:53:39;99143.88;;;16.80;59.88
86751;BME280;77512;52.390;4.686;2024-03-29T03:56:05;99135.38;;;16.78;60.08
86751;BME280;77512;52.390;4.686;2024-03-29T03:58:30;99136.31;;;16.77;59.96
86751;BME280;77512;52.390;4.686;2024-03-29T04:00:56;99139.88;;;16.76;60.12
86751;BME280;77512;52.390;4.686;2024-03-29T04:03:22;99140.03;;;16.75;60.11
86751;BME280;77512;52.390;4.686;2024-03-29T04:05:47;99152.41;;;16.73;60.20
86751;BME280;77512;52.390;4.686;2024-03-29T04:08:12;99156.81;;;16.72;60.19
86751;BME280;77512;52.390;4.686;2024-03-29T04:10:39;99161.34;;;16.70;60.14
86751;BME280;77512;52.390;4.686;2024-03-29T04:13:05;99171.78;;;16.70;60.13
86751;BME280;77512;52.390;4.686;2024-03-29T04:15:30;99163.41;;;16.67;59.98
86751;BME280;77512;52.390;4.686;2024-03-29T04:17:57;99164.25;;;16.67;60.35
86751;BME280;77512;52.390;4.686;2024-03-29T04:20:22;99169.47;;;16.67;60.13
86751;BME280;77512;52.390;4.686;2024-03-29T04:22:48;99165.19;;;16.66;60.14
86751;BME280;77512;52.390;4.686;2024-03-29T04:25:14;99167.94;;;16.65;60.29
86751;BME280;77512;52.390;4.686;2024-03-29T04:27:39;99166.16;;;16.65;60.38
86751;BME280;77512;52.390;4.686;2024-03-29T04:30:06;99159.16;;;16.66;60.30
86751;BME280;77512;52.390;4.686;2024-03-29T04:32:31;99160.25;;;16.63;60.07
86751;BME280;77512;52.390;4.686;2024-03-29T04:34:57;99160.09;;;16.65;60.24
86751;BME280;77512;52.390;4.686;2024-03-29T04:37:22;99163.81;;;16.62;60.21
86751;BME280;77512;52.390;4.686;2024-03-29T04:39:47;99149.13;;;16.61;60.17
86751;BME280;77512;52.390;4.686;2024-03-29T04:42:13;99157.94;;;16.60;60.30
86751;BME280;77512;52.390;4.686;2024-03-29T04:44:40;99167.28;;;16.63;60.28
86751;BME280;77512;52.390;4.686;2024-03-29T04:47:05;99163.03;;;16.62;59.96
86751;BME280;77512;52.390;4.686;2024-03-29T04:49:31;99155.31;;;16.60;60.36
86751;BME280;77512;52.390;4.686;2024-03-29T04:52:02;99162.31;;;16.60;60.18
86751;BME280;77512;52.390;4.686;2024-03-29T04:54:27;99173.47;;;16.62;60.33
86751;BME280;77512;52.390;4.686;2024-03-29T04:56:53;99169.19;;;16.61;60.35
86751;BME280;77512;52.390;4.686;2024-03-29T04:59:19;99176.34;;;16.59;60.28
86751;BME280;77512;52.390;4.686;2024-03-29T05:01:46;99165.91;;;16.59;60.37
86751;BME280;77512;52.390;4.686;2024-03-29T05:04:16;99164.53;;;16.55;60.26
86751;BME280;77512;52.390;4.686;2024-03-29T05:06:44;99181.56;;;16.59;60.39
86751;BME280;77512;52.390;4.686;2024-03-29T05:09:09;99178.13;;;16.58;60.33
86751;BME280;77512;52.390;4.686;2024-03-29T05:11:36;99173.88;;;16.57;60.31
86751;BME280;77512;52.390;4.686;2024-03-29T05:14:02;99173.88;;;16.57;60.51
86751;BME280;77512;52.390;4.686;2024-03-29T05:16:29;99177.47;;;16.56;60.36
86751;BME280;77512;52.390;4.686;2024-03-29T05:18:54;99179.91;;;16.58;60.35
86751;BME280;77512;52.390;4.686;2024-03-29T05:21:19;99176.34;;;16.59;60.20
86751;BME280;77512;52.390;4.686;2024-03-29T05:23:45;99178.69;;;16.62;59.87
86751;BME280;77512;52.390;4.686;2024-03-29T05:26:10;99173.03;;;16.66;59.70
86751;BME280;77512;52.390;4.686;2024-03-29T05:28:35;99177.44;;;16.66;59.72
86751;BME280;77512;52.390;4.686;2024-03-29T05:31:12;99175.50;;;16.68;59.89
86751;BME280;77512;52.390;4.686;2024-03-29T05:33:39;99178.25;;;16.66;59.84
86751;BME280;77512;52.390;4.686;2024-03-29T05:36:05;99188.69;;;16.66;59.62
86751;BME280;77512;52.390;4.686;2024-03-29T05:38:32;99188.97;;;16.63;59.56
86751;BME280;77512;52.390;4.686;2024-03-29T05:40:57;99190.78;;;16.63;59.69
86751;BME280;77512;52.390;4.686;2024-03-29T05:43:23;99198.63;;;16.63;59.68
86751;BME280;77512;52.390;4.686;2024-03-29T05:45:52;99200.97;;;16.56;59.66
86751;BME280;77512;52.390;4.686;2024-03-29T05:48:18;99204.38;;;16.57;59.53
86751;BME280;77512;52.390;4.686;2024-03-29T05:50:44;99213.72;;;16.59;59.67
86751;BME280;77512;52.390;4.686;2024-03-29T05:53:10;99224.16;;;16.59;59.67
86751;BME280;77512;52.390;4.686;2024-03-29T05:55:35;99226.91;;;16.58;59.83
86751;BME280;77512;52.390;4.686;2024-03-29T05:58:01;99234.91;;;16.56;59.91
86751;BME280;77512;52.390;4.686;2024-03-29T06:00:26;99237.53;;;16.56;60.03
86751;BME280;77512;52.390;4.686;2024-03-29T06:02:52;99226.91;;;16.58;59.80
86751;BME280;77512;52.390;4.686;2024-03-29T06:05:18;99240.41;;;16.63;59.41
86751;BME280;77512;52.390;4.686;2024-03-29T06:07:43;99245.06;;;16.69;59.45
86751;BME280;77512;52.390;4.686;2024-03-29T06:10:09;99233.41;;;16.73;59.22
86751;BME280;77512;52.390;4.686;2024-03-29T06:12:35;99247.41;;;16.81;59.33
86751;BME280;77512;52.390;4.686;2024-03-29T06:15:01;99252.25;;;16.86;59.40
86751;BME280;77512;52.390;4.686;2024-03-29T06:17:45;99250.72;;;16.93;59.08
86751;BME280;77512;52.390;4.686;2024-03-29T06:20:11;99250.31;;;16.98;58.97
86751;BME280;77512;52.390;4.686;2024-03-29T06:22:37;99255.09;;;17.02;58.96
86751;BME280;77512;52.390;4.686;2024-03-29T06:25:02;99265.28;;;17.05;59.04
86751;BME280;77512;52.390;4.686;2024-03-29T06:27:33;99260.75;;;17.07;58.87
86751;BME280;77512;52.390;4.686;2024-03-29T06:30:00;99263.78;;;17.12;58.71
86751;BME280;77512;52.390;4.686;2024-03-29T06:32:25;99271.47;;;17.14;58.67
86751;BME280;77512;52.390;4.686;2024-03-29T06:34:51;99268.72;;;17.15;58.49
86751;BME280;77512;52.390;4.686;2024-03-29T06:37:16;99276.44;;;17.17;58.69
86751;BME280;77512;52.390;4.686;2024-03-29T06:39:42;99262.53;;;17.16;58.62
86751;BME280;77512;52.390;4.686;2024-03-29T06:42:08;99269.41;;;17.17;58.57
86751;BME280;77512;52.390;4.686;2024-03-29T06:44:34;99266.78;;;17.17;58.60
86751;BME280;77512;52.390;4.686;2024-03-29T06:47:00;99269.41;;;17.17;58.70
86751;BME280;77512;52.390;4.686;2024-03-29T06:49:26;99265.97;;;17.17;58.71
86751;BME280;77512;52.390;4.686;2024-03-29T06:51:51;99265.97;;;17.17;58.76
86751;BME280;77512;52.390;4.686;2024-03-29T06:54:17;99264.88;;;17.19;58.59
86751;BME280;77512;52.390;4.686;2024-03-29T06:56:42;99258.00;;;17.18;58.73
86751;BME280;77512;52.390;4.686;2024-03-29T06:59:07;99251.09;;;17.17;58.59
86751;BME280;77512;52.390;4.686;2024-03-29T07:01:33;99247.69;;;17.17;58.74
86751;BME280;77512;52.390;4.686;2024-03-29T07:03:58;99258.28;;;17.15;58.89
86751;BME280;77512;52.390;4.686;2024-03-29T07:06:24;99255.78;;;17.14;58.98
86751;BME280;77512;52.390;4.686;2024-03-29T07:08:49;99265.28;;;17.15;58.94
86751;BME280;77512;52.390;4.686;2024-03-29T07:11:15;99262.66;;;17.15;59.14
86751;BME280;77512;52.390;4.686;2024-03-29T07:13:40;99272.31;;;17.14;59.23
86751;BME280;77512;52.390;4.686;2024-03-29T07:16:06;99268.88;;;17.14;59.23
86751;BME280;77512;52.390;4.686;2024-03-29T07:18:34;99273.41;;;17.12;59.50
86751;BME280;77512;52.390;4.686;2024-03-29T07:20:59;99283.19;;;17.10;59.65
86751;BME280;77512;52.390;4.686;2024-03-29T07:23:24;99291.03;;;17.10;59.68
86751;BME280;77512;52.390;4.686;2024-03-29T07:26:01;99283.31;;;17.08;59.75
86751;BME280;77512;52.390;4.686;2024-03-29T07:28:28;99287.72;;;17.08;59.96
86751;BME280;77512;52.390;4.686;2024-03-29T07:30:53;99279.88;;;17.08;60.29
86751;BME280;77512;52.390;4.686;2024-03-29T07:33:19;99285.22;;;17.06;60.06
86751;BME280;77512;52.390;4.686;2024-03-29T07:35:47;99294.75;;;17.07;60.02
86751;BME280;77512;52.390;4.686;2024-03-29T07:38:13;99287.16;;;17.14;64.03
86751;BME280;77512;52.390;4.686;2024-03-29T07:40:40;99293.78;;;17.08;67.50
86751;BME280;77512;52.390;4.686;2024-03-29T07:43:05;99308.34;;;17.01;67.22
86751;BME280;77512;52.390;4.686;2024-03-29T07:45:31;99291.03;;;17.00;63.17
86751;BME280;77512;52.390;4.686;2024-03-29T07:47:56;99299.97;;;17.07;63.02
86751;BME280;77512;52.390;4.686;2024-03-29T07:50:22;99302.72;;;17.15;62.69
86751;BME280;77512;52.390;4.686;2024-03-29T07:52:49;99293.63;;;17.19;62.81
86751;BME280;77512;52.390;4.686;2024-03-29T07:55:14;99300.38;;;17.22;62.95
86751;BME280;77512;52.390;4.686;2024-03-29T07:57:40;99286.88;;;17.26;63.42
86751;BME280;77512;52.390;4.686;2024-03-29T08:00:05;99293.75;;;17.27;63.32
86751;BME280;77512;52.390;4.686;2024-03-29T08:02:33;99284.13;;;17.28;63.53
86751;BME280;77512;52.390;4.686;2024-03-29T08:04:59;99301.31;;;17.30;62.91
86751;BME280;77512;52.390;4.686;2024-03-29T08:07:24;99317.41;;;17.35;62.97
86751;BME280;77512;52.390;4.686;2024-03-29T08:09:50;99312.75;;;17.39;62.47
86751;BME280;77512;52.390;4.686;2024-03-29T08:12:18;99311.63;;;17.60;61.25
86751;BME280;77512;52.390;4.686;2024-03-29T08:14:44;99310.84;;;17.12;54.64
86751;BME280;77512;52.390;4.686;2024-03-29T08:17:09;99309.44;;;16.30;54.04
86751;BME280;77512;52.390;4.686;2024-03-29T08:19:44;99326.94;;;16.00;53.92
86751;BME280;77512;52.390;4.686;2024-03-29T08:22:09;99340.38;;;15.95;53.44
86751;BME280;77512;52.390;4.686;2024-03-29T08:24:36;99327.44;;;15.94;52.90
86751;BME280;77512;52.390;4.686;2024-03-29T08:27:02;99319.38;;;15.97;52.74
86751;BME280;77512;52.390;4.686;2024-03-29T08:29:27;99309.06;;;15.95;52.53
86751;BME280;77512;52.390;4.686;2024-03-29T08:31:53;99314.41;;;16.73;54.38
86751;BME280;77512;52.390;4.686;2024-03-29T08:34:18;99314.94;;;17.34;52.31
86751;BME280;77512;52.390;4.686;2024-03-29T08:36:44;99318.09;;;17.66;52.09
86751;BME280;77512;52.390;4.686;2024-03-29T08:39:09;99322.56;;;17.92;52.07
86751;BME280;77512;52.390;4.686;2024-03-29T08:41:35;99325.97;;;18.02;52.02
86751;BME280;77512;52.390;4.686;2024-03-29T08:44:01;99335.06;;;18.08;52.46
86751;BME280;77512;52.390;4.686;2024-03-29T08:46:27;99339.19;;;18.10;52.73
86751;BME280;77512;52.390;4.686;2024-03-29T08:48:53;99338.19;;;18.11;53.06
86751;BME280;77512;52.390;4.686;2024-03-29T08:51:20;99334.88;;;18.09;53.50
86751;BME280;77512;52.390;4.686;2024-03-29T08:53:45;99343.97;;;18.15;53.37
86751;BME280;77512;52.390;4.686;2024-03-29T08:56:12;99336.09;;;18.15;53.75
86751;BME280;77512;52.390;4.686;2024-03-29T08:58:37;99347.84;;;18.11;54.40
86751;BME280;77512;52.390;4.686;2024-03-29T09:01:04;99355.00;;;18.18;55.02
86751;BME280;77512;52.390;4.686;2024-03-29T09:03:30;99364.06;;;18.24;55.09
86751;BME280;77512;52.390;4.686;2024-03-29T09:05:56;99370.09;;;18.34;55.36
86751;BME280;77512;52.390;4.686;2024-03-29T09:08:21;99365.13;;;18.40;55.36
86751;BME280;77512;52.390;4.686;2024-03-29T09:10:46;99373.41;;;18.36;55.77
86751;BME280;77512;52.390;4.686;2024-03-29T09:13:12;99358.94;;;18.32;55.55
86751;BME280;77512;52.390;4.686;2024-03-29T09:15:38;99360.88;;;18.30;55.94
86751;BME280;77512;52.390;4.686;2024-03-29T09:18:03;99366.25;;;18.28;55.76
86751;BME280;77512;52.390;4.686;2024-03-29T09:20:35;99362.25;;;18.34;55.85
86751;BME280;77512;52.390;4.686;2024-03-29T09:23:01;99372.00;;;18.41;55.56
86751;BME280;77512;52.390;4.686;2024-03-29T09:25:26;99379.44;;;18.46;56.08
86751;BME280;77512;52.390;4.686;2024-03-29T09:27:51;99373.09;;;18.48;55.79
86751;BME280;77512;52.390;4.686;2024-03-29T09:30:17;99372.09;;;18.49;55.95
86751;BME280;77512;52.390;4.686;2024-03-29T09:32:43;99363.44;;;18.49;56.26
86751;BME280;77512;52.390;4.686;2024-03-29T09:35:09;99370.47;;;18.48;56.03
86751;BME280;77512;52.390;4.686;2024-03-29T09:37:34;99363.72;;;18.46;56.20
86751;BME280;77512;52.390;4.686;2024-03-29T09:40:04;99372.38;;;18.46;56.69
86751;BME280;77512;52.390;4.686;2024-03-29T09:42:32;99372.69;;;18.43;56.88
86751;BME280;77512;52.390;4.686;2024-03-29T09:44:59;99377.25;;;18.41;56.63
86751;BME280;77512;52.390;4.686;2024-03-29T09:47:25;99373.97;;;18.39;57.15
86751;BME280;77512;52.390;4.686;2024-03-29T09:49:53;99386.47;;;18.45;57.13
86751;BME280;77512;52.390;4.686;2024-03-29T09:52:19;99381.91;;;18.47;57.15
86751;BME280;77512;52.390;4.686;2024-03-29T09:54:45;99377.34;;;18.49;57.19
86751;BME280;77512;52.390;4.686;2024-03-29T09:57:11;99378.84;;;18.52;56.90
86751;BME280;77512;52.390;4.686;2024-03-29T09:59:38;99384.25;;;18.50;56.92
86751;BME280;77512;52.390;4.686;2024-03-29T10:02:11;99375.84;;;18.47;57.34
86751;BME280;77512;52.390;4.686;2024-03-29T10:04:39;99385.81;;;18.43;57.89
86751;BME280;77512;52.390;4.686;2024-03-29T10:07:05;99382.34;;;18.43;57.98
86751;BME280;77512;52.390;4.686;2024-03-29T10:09:31;99385.09;;;18.41;57.58
86751;BME280;77512;52.390;4.686;2024-03-29T10:11:58;99387.72;;;18.41;57.58
86751;BME280;77512;52.390;4.686;2024-03-29T10:14:23;99385.25;;;18.40;57.64
86751;BME280;77512;52.390;4.686;2024-03-29T10:16:51;99377.53;;;18.38;57.80
86751;BME280;77512;52.390;4.686;2024-03-29T10:19:17;99382.63;;;18.40;58.09
86751;BME280;77512;52.390;4.686;2024-03-29T10:21:42;99366.09;;;18.39;57.37
86751;BME280;77512;52.390;4.686;2024-03-29T10:24:15;99375.88;;;18.37;57.75
86751;BME280;77512;52.390;4.686;2024-03-29T10:26:42;99383.88;;;18.36;57.31
86751;BME280;77512;52.390;4.686;2024-03-29T10:29:07;99382.78;;;18.38;57.39
86751;BME280;77512;52.390;4.686;2024-03-29T10:31:36;99381.13;;;18.37;56.10
86751;BME280;77512;52.390;4.686;2024-03-29T10:34:05;99378.09;;;18.32;56.13
86751;BME280;77512;52.390;4.686;2024-03-29T10:36:33;99390.63;;;18.29;56.38
86751;BME280;77512;52.390;4.686;2024-03-29T10:39:02;99392.31;;;18.30;56.02
86751;BME280;77512;52.390;4.686;2024-03-29T10:41:27;99381.53;;;18.33;56.09
86751;BME280;77512;52.390;4.686;2024-03-29T10:43:54;99387.59;;;18.33;55.28
86751;BME280;77512;52.390;4.686;2024-03-29T10:46:21;99380.84;;;18.31;55.48
86751;BME280;77512;52.390;4.686;2024-03-29T10:48:49;99401.53;;;18.34;55.25
86751;BME280;77512;52.390;4.686;2024-03-29T10:51:14;99397.38;;;18.41;55.00
86751;BME280;77512;52.390;4.686;2024-03-29T10:53:40;99391.56;;;18.47;55.17
86751;BME280;77512;52.390;4.686;2024-03-29T10:56:07;99394.56;;;18.52;55.56
86751;BME280;77512;52.390;4.686;2024-03-29T10:58:35;99403.25;;;18.52;55.65
86751;BME280;77512;52.390;4.686;2024-03-29T11:01:04;99402.84;;;18.57;55.73
86751;BME280;77512;52.390;4.686;2024-03-29T11:03:49;99412.44;;;18.66;56.10
86751;BME280;77512;52.390;4.686;2024-03-29T11:06:16;99417.66;;;18.66;55.67
86751;BME280;77512;52.390;4.686;2024-03-29T11:08:45;99426.13;;;18.60;55.80
86751;BME280;77512;52.390;4.686;2024-03-29T11:11:13;99409.38;;;18.70;56.21
86751;BME280;77512;52.390;4.686;2024-03-29T11:13:48;99416.97;;;18.73;56.54
86751;BME280;77512;52.390;4.686;2024-03-29T11:16:15;99419.72;;;18.72;56.39
86751;BME280;77512;52.390;4.686;2024-03-29T11:18:42;99419.34;;;18.67;56.41
86751;BME280;77512;52.390;4.686;2024-03-29T11:21:08;99416.88;;;18.65;56.49
86751;BME280;77512;52.390;4.686;2024-03-29T11:23:36;99419.34;;;18.67;56.14
86751;BME280;77512;52.390;4.686;2024-03-29T11:26:02;99419.59;;;18.73;56.41
86751;BME280;77512;52.390;4.686;2024-03-29T11:28:34;99423.19;;;18.72;56.07
86751;BME280;77512;52.390;4.686;2024-03-29T11:31:01;99426.75;;;18.71;56.03
86751;BME280;77512;52.390;4.686;2024-03-29T11:35:55;99438.84;;;18.82;55.83
86751;BME280;77512;52.390;4.686;2024-03-29T11:38:21;99433.06;;;18.78;56.45
86751;BME280;77512;52.390;4.686;2024-03-29T11:41:11;99440.25;;;18.76;57.17
86751;BME280;77512;52.390;4.686;2024-03-29T11:43:37;99447.28;;;18.76;57.98
86751;BME280;77512;52.390;4.686;2024-03-29T11:46:06;99442.69;;;18.87;57.60
86751;BME280;77512;52.390;4.686;2024-03-29T11:48:32;99450.50;;;18.97;57.87
86751;BME280;77512;52.390;4.686;2024-03-29T11:50:58;99448.94;;;19.04;58.22
86751;BME280;77512;52.390;4.686;2024-03-29T11:53:24;99460.03;;;19.15;58.29
86751;BME280;77512;52.390;4.686;2024-03-29T11:55:50;99454.75;;;19.25;57.54
86751;BME280;77512;52.390;4.686;2024-03-29T11:58:22;99448.09;;;19.30;57.47
86751;BME280;77512;52.390;4.686;2024-03-29T12:00:49;99452.63;;;19.38;57.23
86751;BME280;77512;52.390;4.686;2024-03-29T12:03:16;99452.19;;;19.42;57.44
86751;BME280;77512;52.390;4.686;2024-03-29T12:05:43;99448.44;;;19.45;57.25
86751;BME280;77512;52.390;4.686;2024-03-29T12:08:09;99449.06;;;19.29;57.39
86751;BME280;77512;52.390;4.686;2024-03-29T12:10:35;99452.25;;;19.23;57.77
86751;BME280;77512;52.390;4.686;2024-03-29T12:13:02;99457.25;;;19.26;58.07
86751;BME280;77512;52.390;4.686;2024-03-29T12:15:28;99457.03;;;19.37;57.63
86751;BME280;77512;52.390;4.686;2024-03-29T12:18:01;99452.31;;;19.41;57.94
86751;BME280;77512;52.390;4.686;2024-03-29T12:20:34;99436.03;;;19.37;58.97
86751;BME280;77512;52.390;4.686;2024-03-29T12:23:08;99445.53;;;19.38;58.76
86751;BME280;77512;52.390;4.686;2024-03-29T12:25:36;99449.59;;;19.33;59.04
86751;BME280;77512;52.390;4.686;2024-03-29T12:28:01;99450.88;;;19.29;58.89
86751;BME280;77512;52.390;4.686;2024-03-29T12:30:27;99441.97;;;19.12;56.83
86751;BME280;77512;52.390;4.686;2024-03-29T12:33:11;99451.25;;;19.07;57.33
86751;BME280;77512;52.390;4.686;2024-03-29T12:35:41;99449.97;;;19.11;57.54
86751;BME280;77512;52.390;4.686;2024-03-29T12:38:07;99444.22;;;19.07;58.24
86751;BME280;77512;52.390;4.686;2024-03-29T12:40:33;99442.63;;;18.97;57.25
86751;BME280;77512;52.390;4.686;2024-03-29T12:43:04;99445.13;;;18.98;57.66
86751;BME280;77512;52.390;4.686;2024-03-29T12:45:34;99441.44;;;18.91;56.17
86751;BME280;77512;52.390;4.686;2024-03-29T12:48:00;99452.72;;;18.92;56.23
86751;BME280;77512;52.390;4.686;2024-03-29T12:50:27;99448.03;;;18.95;56.67
86751;BME280;77512;52.390;4.686;2024-03-29T12:52:58;99462.91;;;18.95;57.91
86751;BME280;77512;52.390;4.686;2024-03-29T12:55:24;99457.53;;;18.96;57.14
86751;BME280;77512;52.390;4.686;2024-03-29T12:57:50;99468.56;;;19.00;55.95
86751;BME280;77512;52.390;4.686;2024-03-29T13:00:19;99462.41;;;18.91;56.71